Ucluelet, Canada
Current Conditions -  °F | °C
As of 9:00 AM on Wednesday 26 Nov 2014 (Local Time) from CYQQ Reporting Station
Drizzle Drizzle  
Wind Chill: 43°   Ceiling: 600
Heat Index: 43°   Visibility: 5mi
Dew Point: 43°   Wind: 2mph
Humidity: 100%   Direction: 190°S
Pressure: 30.05"   Gusts: NA
Location:  48.94°N, 125.54°W
Report Text: CYQQ 261700Z 19002KT 5SM -DZ BR FEW002 OVC006 06/06 A3005 RMK SF2ST6 SLP177
Loading
Personal Weather Stations






























Interactive Weather Map New forecast layout! Learn more

10-Day Weather Forecast

Advertisements
Track Severe Weather on mobile